createdAt,value
2022-12-23T00:02:25.000Z,9.58
2022-12-23T00:07:24.000Z,9.6
2022-12-23T00:12:24.000Z,9.9
2022-12-23T00:17:25.000Z,9.83
2022-12-23T00:22:25.000Z,9.69
2022-12-23T00:27:25.000Z,9.83
2022-12-23T00:32:25.000Z,9.65
2022-12-23T00:37:24.000Z,8.84
2022-12-23T00:42:24.000Z,9.07
2022-12-23T00:47:24.000Z,8.63
2022-12-23T00:52:24.000Z,8.63
2022-12-23T01:07:24.000Z,8.86
2022-12-23T01:12:25.000Z,8.86
2022-12-23T01:17:24.000Z,8.8
2022-12-23T01:22:24.000Z,8.96
2022-12-23T01:27:24.000Z,8.94
2022-12-23T01:32:25.000Z,9.51
2022-12-23T01:37:24.000Z,9.51
2022-12-23T01:42:24.000Z,9.87
2022-12-23T01:47:25.000Z,9.87
2022-12-23T01:52:24.000Z,9.87
2022-12-23T01:57:24.000Z,10.67
2022-12-23T02:02:25.000Z,10.67
2022-12-23T02:22:25.000Z,11.31
2022-12-23T02:27:24.000Z,11.31
2022-12-23T02:32:24.000Z,10.72
2022-12-23T02:37:24.000Z,10.72
2022-12-23T02:42:24.000Z,10.46
2022-12-23T02:47:24.000Z,10.45
2022-12-23T02:52:24.000Z,10.45
2022-12-23T03:17:24.000Z,10.35
2022-12-23T03:22:24.000Z,10.36
2022-12-23T03:27:24.000Z,10.36
2022-12-23T05:07:25.000Z,12.06
2022-12-23T05:12:24.000Z,12.06
2022-12-23T05:22:24.000Z,12.29
2022-12-23T05:27:24.000Z,12.29
2022-12-23T05:37:24.000Z,12.73
2022-12-23T05:42:24.000Z,12.77
2022-12-23T05:47:24.000Z,12.77
2022-12-23T06:07:24.000Z,15.47
2022-12-23T06:12:25.000Z,15.47
2022-12-23T07:02:25.000Z,12.55
2022-12-23T07:07:24.000Z,12.57
2022-12-23T07:12:25.000Z,12.57
2022-12-23T07:37:24.000Z,13.58
2022-12-23T08:07:24.000Z,14.49
2022-12-23T08:12:25.000Z,14.55
2022-12-23T08:17:24.000Z,14.55
2022-12-23T08:22:24.000Z,15.89
2022-12-23T08:27:24.000Z,15.9
2022-12-23T08:32:25.000Z,15.9
2022-12-23T08:42:24.000Z,16.17
2022-12-23T08:47:25.000Z,16.17
2022-12-23T09:07:25.000Z,15.29
2022-12-23T09:57:24.000Z,13.94
2022-12-23T10:02:24.000Z,13.92
2022-12-23T10:07:24.000Z,13.83
2022-12-23T10:32:24.000Z,13.98
2022-12-23T10:37:24.000Z,14.27
2022-12-23T10:42:25.000Z,14.68
2022-12-23T10:47:25.000Z,13.61
2022-12-23T10:52:25.000Z,14.32
2022-12-23T10:57:24.000Z,13.26
2022-12-23T11:02:24.000Z,13.32
2022-12-23T11:07:25.000Z,12.99
2022-12-23T11:17:24.000Z,13.57
2022-12-23T11:22:25.000Z,13.4
2022-12-23T11:27:24.000Z,13.46
2022-12-23T11:32:24.000Z,13.46
2022-12-23T11:37:24.000Z,12.99
2022-12-23T11:42:24.000Z,12.99
2022-12-23T11:47:24.000Z,12.99
2022-12-23T12:12:24.000Z,12.6
2022-12-23T12:17:24.000Z,12.58
2022-12-23T12:22:25.000Z,12.58
2022-12-23T12:37:25.000Z,13.97
2022-12-23T12:42:24.000Z,13.97
2022-12-23T12:47:25.000Z,13.12
2022-12-23T12:52:24.000Z,13.12
2022-12-23T13:27:24.000Z,13.03
2022-12-23T13:32:24.000Z,13.03
2022-12-23T13:47:24.000Z,11.82
2022-12-23T13:52:24.000Z,11.82
2022-12-23T14:02:24.000Z,9.86
2022-12-23T14:07:25.000Z,9.86
2022-12-23T15:07:24.000Z,9.17
2022-12-23T15:12:24.000Z,9.17
2022-12-23T15:22:24.000Z,8.28
2022-12-23T15:27:24.000Z,8.28
2022-12-23T15:32:24.000Z,8.28
2022-12-23T16:07:24.000Z,7.91
2022-12-23T16:12:25.000Z,7.91
2022-12-23T16:22:24.000Z,8.54
2022-12-23T16:27:24.000Z,9.65
2022-12-23T16:32:24.000Z,11.16
2022-12-23T16:37:24.000Z,10.33
2022-12-23T16:42:25.000Z,11.04
2022-12-23T16:47:24.000Z,11.04
2022-12-23T17:12:24.000Z,10.58
2022-12-23T17:17:25.000Z,10.56
2022-12-23T17:22:24.000Z,10.56
2022-12-23T17:32:25.000Z,10.82
2022-12-23T17:37:25.000Z,10.82
2022-12-23T17:47:24.000Z,11.8
2022-12-23T17:52:24.000Z,11.8
2022-12-23T18:12:25.000Z,12.87
2022-12-23T18:17:24.000Z,12.87
2022-12-23T18:22:25.000Z,13.52
2022-12-23T18:27:24.000Z,13.46
2022-12-23T18:32:24.000Z,13.46
2022-12-23T18:37:24.000Z,14.18
2022-12-23T18:42:24.000Z,14.18
2022-12-23T18:57:24.000Z,13.73
2022-12-23T19:02:24.000Z,13.73
2022-12-23T19:07:24.000Z,12.33
2022-12-23T19:12:24.000Z,12.41
2022-12-23T19:17:25.000Z,12.41
2022-12-23T19:47:24.000Z,11.36
2022-12-23T19:52:25.000Z,11.36
2022-12-23T20:17:25.000Z,11.23
2022-12-23T20:22:24.000Z,11.23
2022-12-23T20:32:24.000Z,11.65
2022-12-23T20:37:24.000Z,11.65
2022-12-23T20:52:24.000Z,12.76
2022-12-23T20:57:24.000Z,12.76
2022-12-23T21:02:24.000Z,12.12
2022-12-23T21:07:24.000Z,12.12
2022-12-23T21:12:25.000Z,11.9
2022-12-23T21:17:24.000Z,11.9
2022-12-23T21:22:24.000Z,11.51
2022-12-23T21:27:25.000Z,11.51
2022-12-23T21:52:25.000Z,12.74
2022-12-23T21:57:24.000Z,12.74
2022-12-23T22:27:24.000Z,12.33
2022-12-23T22:32:24.000Z,12.33
